Sao Bento Abade, Brazil
Current Conditions -  °F | °C
As of 2:00 PM on Thursday 27 Nov 2014 (Local Time) from SBGW Reporting Station
Broken Clouds Broken Clouds  
Wind Chill: 81°   Ceiling: 2000
Heat Index: 83°   Visibility: 5mi
Dew Point: 68°   Wind: 8mph
Humidity: 65%   Direction: 250°WSW
Pressure: 29.91"   Gusts: NA
Location:  21.58°S, 45.08°W
Report Text: SBGW 271600Z 25007KT 8000 BKN020 FEW025TCU BKN080 27/20 Q1013
Loading
Personal Weather Stations






























Interactive Weather Map New forecast layout! Learn more

10-Day Weather Forecast

Advertisements
Track Severe Weather on mobile